createdAt,value
2018-08-19T00:01:53.172Z,6.90
2018-08-19T00:04:20.098Z,7.50
2018-08-19T00:06:47.088Z,6.80
2018-08-19T00:09:15.109Z,6.63
2018-08-19T00:11:43.422Z,6.83
2018-08-19T00:14:24.569Z,6.87
2018-08-19T00:16:51.893Z,7.90
2018-08-19T00:19:18.835Z,7.57
2018-08-19T00:21:45.819Z,6.90
2018-08-19T00:24:12.733Z,7.40
2018-08-19T00:26:39.642Z,6.90
2018-08-19T00:29:06.548Z,7.23
2018-08-19T00:31:33.520Z,7.70
2018-08-19T00:34:00.426Z,8.07
2018-08-19T00:36:32.915Z,8.00
2018-08-19T00:38:59.830Z,7.90
2018-08-19T00:41:26.864Z,7.63
2018-08-19T00:43:53.832Z,8.23
2018-08-19T00:46:25.481Z,8.13
2018-08-19T00:48:52.424Z,8.40
2018-08-19T00:51:19.348Z,8.30
2018-08-19T00:53:46.256Z,8.03
2018-08-19T00:56:13.289Z,8.27
2018-08-19T00:58:40.257Z,10.17
2018-08-19T01:01:18.964Z,8.93
2018-08-19T01:03:52.750Z,8.10
2018-08-19T01:06:19.704Z,8.60
2018-08-19T01:08:46.640Z,8.83
2018-08-19T01:11:26.944Z,8.23
2018-08-19T01:13:53.880Z,8.37
2018-08-19T01:16:21.827Z,8.03
2018-08-19T01:18:53.392Z,8.93
2018-08-19T01:21:20.380Z,8.50
2018-08-19T01:23:47.272Z,9.37
2018-08-19T01:26:14.189Z,8.57
2018-08-19T01:28:42.749Z,8.83
2018-08-19T01:31:09.769Z,8.97
2018-08-19T01:33:36.700Z,9.83
2018-08-19T01:36:03.621Z,9.07
2018-08-19T01:38:30.728Z,8.93
2018-08-19T01:40:57.636Z,8.60
2018-08-19T01:43:24.544Z,9.00
2018-08-19T01:45:51.460Z,8.60
2018-08-19T01:48:18.400Z,9.63
2018-08-19T01:50:45.325Z,9.70
2018-08-19T01:53:12.269Z,9.20
2018-08-19T01:55:39.193Z,9.27
2018-08-19T01:58:06.117Z,9.47
2018-08-19T02:00:33.015Z,9.80
2018-08-19T02:03:03.376Z,9.43
2018-08-19T02:05:30.292Z,9.40
2018-08-19T02:07:58.819Z,10.00
2018-08-19T02:10:26.573Z,9.57
2018-08-19T02:12:54.544Z,9.90
2018-08-19T02:15:22.102Z,9.80
2018-08-19T02:17:55.207Z,10.23
2018-08-19T02:20:33.007Z,10.50
2018-08-19T02:23:01.174Z,10.90
2018-08-19T02:25:36.576Z,10.10
2018-08-19T02:28:04.925Z,10.67
2018-08-19T02:30:32.152Z,10.63
2018-08-19T02:32:59.093Z,10.67
2018-08-19T02:35:26.112Z,10.67
2018-08-19T02:37:53.244Z,10.47
2018-08-19T02:40:29.455Z,11.40
2018-08-19T02:42:56.395Z,10.80
2018-08-19T02:45:23.328Z,10.57
2018-08-19T02:47:50.757Z,10.80
2018-08-19T02:50:17.654Z,10.60
2018-08-19T02:52:44.704Z,11.77
2018-08-19T02:55:11.624Z,11.80
2018-08-19T02:57:38.768Z,11.47
2018-08-19T03:00:06.568Z,11.30
2018-08-19T03:02:35.977Z,11.10
2018-08-19T03:05:05.357Z,11.33
2018-08-19T03:07:32.549Z,11.37
2018-08-19T03:10:15.603Z,11.50
2018-08-19T03:12:42.856Z,12.23
2018-08-19T03:15:11.045Z,12.27
2018-08-19T03:17:38.076Z,11.73
2018-08-19T03:20:07.089Z,11.80
2018-08-19T03:22:33.980Z,11.73
2018-08-19T03:25:02.216Z,11.30
2018-08-19T03:27:29.154Z,11.60
2018-08-19T03:29:57.509Z,12.13
2018-08-19T03:32:24.845Z,11.43
2018-08-19T03:34:54.469Z,12.43
2018-08-19T03:37:21.360Z,11.20
2018-08-19T03:39:48.257Z,11.23
2018-08-19T03:42:15.793Z,11.57
2018-08-19T03:44:43.370Z,11.33
2018-08-19T03:47:25.149Z,12.07
2018-08-19T03:49:52.043Z,11.03
2018-08-19T03:52:18.958Z,11.00
2018-08-19T03:54:46.721Z,10.93
2018-08-19T03:57:17.396Z,11.57
2018-08-19T03:59:44.276Z,10.83
2018-08-19T04:02:11.184Z,11.77
2018-08-19T04:04:38.076Z,11.40
2018-08-19T04:07:04.972Z,11.23
2018-08-19T04:09:31.863Z,11.33
2018-08-19T04:12:04.932Z,11.70
2018-08-19T04:14:31.827Z,11.23
2018-08-19T04:17:00.056Z,11.43
2018-08-19T04:19:27.551Z,11.10
2018-08-19T04:21:57.504Z,10.37
2018-08-19T04:24:24.405Z,11.40
2018-08-19T04:26:51.322Z,10.83
2018-08-19T04:29:23.072Z,10.93
2018-08-19T04:31:49.957Z,10.77
2018-08-19T04:34:16.848Z,10.60
2018-08-19T04:36:43.764Z,10.10
2018-08-19T04:39:10.688Z,10.70
2018-08-19T04:41:37.588Z,10.20
2018-08-19T04:44:04.510Z,9.50
2018-08-19T04:46:31.393Z,9.87
2018-08-19T04:48:58.288Z,9.43
2018-08-19T04:51:25.428Z,10.07
2018-08-19T04:53:52.348Z,9.73
2018-08-19T04:56:19.228Z,9.53
2018-08-19T04:58:46.105Z,9.63
2018-08-19T05:01:13.155Z,9.60
2018-08-19T05:03:42.564Z,9.83
2018-08-19T05:06:09.448Z,9.23
2018-08-19T05:08:36.323Z,9.30
2018-08-19T05:11:03.240Z,9.87
2018-08-19T05:13:30.143Z,8.93
2018-08-19T05:15:57.184Z,8.67
2018-08-19T05:18:24.127Z,9.53
2018-08-19T05:20:55.034Z,9.67
2018-08-19T05:23:21.916Z,9.40
2018-08-19T05:25:53.778Z,8.03
2018-08-19T05:28:20.747Z,8.93
2018-08-19T05:30:47.599Z,8.80
2018-08-19T05:33:14.573Z,7.70
2018-08-19T05:35:41.507Z,8.17
2018-08-19T05:38:08.508Z,8.10
2018-08-19T05:40:35.315Z,7.80
2018-08-19T05:43:02.196Z,8.27
2018-08-19T05:45:29.103Z,7.60
2018-08-19T05:48:06.581Z,7.73
2018-08-19T05:50:33.484Z,7.57
2018-08-19T05:53:00.399Z,7.47
2018-08-19T05:55:27.369Z,7.73
2018-08-19T05:57:54.250Z,7.67
2018-08-19T06:00:24.239Z,7.47
2018-08-19T06:02:52.481Z,7.23
2018-08-19T06:05:19.414Z,6.87
2018-08-19T06:07:50.450Z,6.97
2018-08-19T06:10:17.364Z,7.20
2018-08-19T06:12:44.276Z,6.83
2018-08-19T06:15:11.187Z,7.07
2018-08-19T06:17:38.096Z,6.90
2018-08-19T06:20:05.341Z,6.43
2018-08-19T06:22:38.041Z,6.40
2018-08-19T06:25:04.947Z,6.47
2018-08-19T06:27:36.488Z,5.90
2018-08-19T06:30:03.904Z,6.20
2018-08-19T06:32:31.654Z,6.80
2018-08-19T06:34:58.767Z,6.67
2018-08-19T06:37:25.512Z,6.40
2018-08-19T06:39:52.495Z,6.03
2018-08-19T06:42:20.024Z,6.43
2018-08-19T06:44:46.917Z,6.40
2018-08-19T06:47:13.818Z,6.60
2018-08-19T06:49:46.635Z,6.60
2018-08-19T06:52:13.587Z,6.57
2018-08-19T06:54:40.465Z,6.30
2018-08-19T06:57:08.052Z,6.70
2018-08-19T06:59:35.504Z,6.80
2018-08-19T07:02:02.416Z,6.60
2018-08-19T07:04:29.293Z,6.97
2018-08-19T07:06:56.200Z,7.00
2018-08-19T07:09:23.080Z,6.43
2018-08-19T07:11:58.605Z,6.50
2018-08-19T07:14:26.608Z,6.67
2018-08-19T07:16:53.603Z,6.90
2018-08-19T07:19:20.534Z,6.63
2018-08-19T07:21:50.044Z,6.43
2018-08-19T07:24:16.925Z,7.40
2018-08-19T07:26:43.820Z,7.07
2018-08-19T07:29:10.692Z,6.80
2018-08-19T07:31:37.561Z,7.13
2018-08-19T07:34:04.456Z,6.83
2018-08-19T07:36:31.348Z,7.53
2018-08-19T07:38:58.232Z,6.60
2018-08-19T07:41:25.108Z,7.53
2018-08-19T07:43:52.078Z,7.00
2018-08-19T07:46:18.904Z,6.83
2018-08-19T07:48:45.801Z,7.23
2018-08-19T07:51:12.692Z,7.10
2018-08-19T07:53:39.601Z,6.30
2018-08-19T07:56:06.496Z,7.03
2018-08-19T07:58:37.907Z,7.07
2018-08-19T08:01:04.837Z,6.93
2018-08-19T08:03:31.913Z,6.90
2018-08-19T08:05:58.799Z,7.03
2018-08-19T08:08:25.679Z,7.00
2018-08-19T08:10:52.670Z,6.93
2018-08-19T08:13:21.778Z,6.47
2018-08-19T08:15:54.959Z,6.57
2018-08-19T08:18:23.577Z,6.30
2018-08-19T08:20:56.734Z,6.17
2018-08-19T08:23:25.504Z,5.97
2018-08-19T08:25:52.416Z,5.50
2018-08-19T08:28:19.348Z,5.80
2018-08-19T08:30:46.234Z,5.23
2018-08-19T08:33:13.137Z,5.70
2018-08-19T08:35:46.624Z,5.07
2018-08-19T08:38:13.529Z,4.50
2018-08-19T08:40:40.457Z,4.93
2018-08-19T08:43:07.356Z,4.70
2018-08-19T08:45:39.817Z,4.80
2018-08-19T08:48:07.209Z,4.83
2018-08-19T08:50:34.242Z,4.30
2018-08-19T08:53:01.156Z,5.00
2018-08-19T08:55:28.049Z,5.07
2018-08-19T08:57:54.973Z,5.03
2018-08-19T09:00:21.868Z,5.33
2018-08-19T09:02:48.760Z,4.80
2018-08-19T09:05:15.648Z,4.70
2018-08-19T09:07:42.533Z,5.10
2018-08-19T09:10:11.512Z,5.03
2018-08-19T09:12:42.099Z,5.27
2018-08-19T09:15:09.051Z,6.03
2018-08-19T09:17:35.894Z,5.87
2018-08-19T09:20:03.400Z,6.40
2018-08-19T09:22:30.289Z,5.90
2018-08-19T09:24:57.192Z,6.00
2018-08-19T09:27:24.092Z,6.33
2018-08-19T09:29:50.990Z,6.13
2018-08-19T09:32:17.891Z,5.80
2018-08-19T09:34:44.799Z,6.23
2018-08-19T09:37:11.710Z,6.80
2018-08-19T09:39:41.663Z,6.43
2018-08-19T09:42:10.528Z,6.60
2018-08-19T09:44:37.896Z,6.10
2018-08-19T09:47:04.991Z,6.73
2018-08-19T09:49:31.930Z,7.00
2018-08-19T09:51:58.811Z,8.17
2018-08-19T09:54:31.436Z,7.93
2018-08-19T09:56:58.333Z,9.10
2018-08-19T09:59:25.247Z,8.90
2018-08-19T10:01:52.276Z,8.10
2018-08-19T10:04:22.168Z,8.60
2018-08-19T10:07:01.598Z,8.90
2018-08-19T10:09:29.061Z,8.90
2018-08-19T10:11:55.983Z,8.40
2018-08-19T10:14:22.864Z,9.10
2018-08-19T10:16:49.764Z,8.83
2018-08-19T10:19:16.656Z,8.47
2018-08-19T10:21:44.201Z,8.73
2018-08-19T10:24:19.708Z,9.23
2018-08-19T10:26:46.691Z,10.00
2018-08-19T10:29:13.612Z,9.50
2018-08-19T10:31:40.584Z,11.40
2018-08-19T10:34:07.572Z,10.67
2018-08-19T10:36:34.473Z,11.33
2018-08-19T10:39:01.716Z,10.30
2018-08-19T10:41:28.551Z,9.97
2018-08-19T10:43:57.376Z,10.90
2018-08-19T10:46:24.317Z,11.07
2018-08-19T10:48:51.222Z,11.27
2018-08-19T10:51:18.158Z,11.23
2018-08-19T10:53:51.849Z,11.43
2018-08-19T10:56:18.758Z,10.93
2018-08-19T10:58:51.152Z,11.60
2018-08-19T11:01:19.368Z,10.70
2018-08-19T11:03:46.268Z,11.83
2018-08-19T11:06:13.169Z,11.93
2018-08-19T11:08:46.605Z,11.50
2018-08-19T11:11:13.508Z,12.80
2018-08-19T11:13:40.409Z,11.93
2018-08-19T11:16:07.493Z,11.63
2018-08-19T11:18:37.791Z,11.90
2018-08-19T11:21:07.701Z,11.40
2018-08-19T11:23:36.197Z,10.40
2018-08-19T11:26:03.159Z,11.53
2018-08-19T11:28:41.249Z,11.30
2018-08-19T11:31:19.299Z,11.97
2018-08-19T11:33:46.254Z,12.87
2018-08-19T11:36:13.197Z,12.33
2018-08-19T11:38:40.808Z,11.53
2018-08-19T11:41:08.954Z,11.60
2018-08-19T11:43:39.216Z,11.23
2018-08-19T11:46:06.668Z,11.87
2018-08-19T11:48:33.909Z,10.37
2018-08-19T11:51:01.069Z,10.87
2018-08-19T11:53:27.970Z,11.33
2018-08-19T11:55:55.130Z,11.27
2018-08-19T11:58:35.247Z,10.83
2018-08-19T12:01:03.282Z,10.77
2018-08-19T12:03:42.356Z,10.73
2018-08-19T12:06:09.263Z,12.10
2018-08-19T12:08:36.162Z,10.87
2018-08-19T12:11:11.662Z,11.60
2018-08-19T12:13:38.557Z,11.03
2018-08-19T12:16:05.488Z,12.37
2018-08-19T12:18:32.364Z,11.60
2018-08-19T12:20:59.261Z,11.93
2018-08-19T12:23:26.147Z,11.53
2018-08-19T12:25:53.024Z,11.90
2018-08-19T12:28:19.976Z,12.23
2018-08-19T12:30:46.912Z,11.40
2018-08-19T12:33:20.472Z,11.93
2018-08-19T12:35:47.555Z,11.13
2018-08-19T12:38:14.456Z,11.87
2018-08-19T12:40:45.998Z,12.03
2018-08-19T12:43:12.893Z,10.60
2018-08-19T12:45:39.856Z,10.83
2018-08-19T12:48:06.761Z,11.53
2018-08-19T12:50:33.735Z,10.60
2018-08-19T12:53:00.641Z,11.50
2018-08-19T12:55:27.558Z,11.03
2018-08-19T12:58:01.869Z,11.60
2018-08-19T13:00:28.858Z,11.03
2018-08-19T13:02:55.814Z,10.87
2018-08-19T13:05:22.885Z,9.67
2018-08-19T13:07:49.994Z,12.23
2018-08-19T13:10:17.129Z,11.90
2018-08-19T13:17:37.413Z,11.63
2018-08-19T13:20:06.148Z,11.27
2018-08-19T13:22:33.639Z,12.13
2018-08-19T13:25:00.528Z,11.47
2018-08-19T13:27:27.437Z,11.77
2018-08-19T13:29:54.348Z,11.70
2018-08-19T13:32:21.275Z,11.43
2018-08-19T13:34:48.173Z,12.70
2018-08-19T13:37:15.089Z,12.17
2018-08-19T13:39:42.028Z,12.10
2018-08-19T13:42:08.952Z,11.67
2018-08-19T13:44:36.176Z,12.83
2018-08-19T13:47:03.126Z,12.47
2018-08-19T13:49:30.005Z,12.20
2018-08-19T13:52:00.174Z,13.03
2018-08-19T13:54:29.382Z,12.70
2018-08-19T13:56:56.360Z,12.30
2018-08-19T13:59:23.268Z,12.23
2018-08-19T14:01:50.181Z,12.10
2018-08-19T14:04:17.117Z,12.33
2018-08-19T14:06:44.690Z,11.53
2018-08-19T14:09:12.149Z,11.40
2018-08-19T14:11:39.708Z,12.87
2018-08-19T14:14:07.184Z,11.07
2018-08-19T14:16:34.421Z,11.47
2018-08-19T14:19:01.341Z,11.53
2018-08-19T14:21:28.604Z,12.07
2018-08-19T14:23:57.185Z,12.80
2018-08-19T14:26:24.152Z,13.37
2018-08-19T14:28:51.060Z,12.30
2018-08-19T14:31:18.684Z,11.67
2018-08-19T14:33:47.057Z,12.53
2018-08-19T14:36:15.093Z,12.57
2018-08-19T14:38:43.014Z,12.63
2018-08-19T14:41:09.939Z,11.33
2018-08-19T14:43:53.033Z,11.60
2018-08-19T14:46:19.942Z,10.70
2018-08-19T14:48:49.126Z,11.57
2018-08-19T14:51:16.012Z,11.17
2018-08-19T14:53:42.970Z,10.90
2018-08-19T14:56:15.232Z,11.57
2018-08-19T14:58:42.186Z,10.83
2018-08-19T15:01:09.085Z,11.30
2018-08-19T15:03:37.429Z,11.33
2018-08-19T15:06:04.329Z,11.97
2018-08-19T15:08:33.520Z,10.67
2018-08-19T15:11:05.886Z,10.27
2018-08-19T15:13:33.215Z,10.97
2018-08-19T15:16:00.124Z,10.23
2018-08-19T15:18:27.061Z,9.87
2018-08-19T15:20:53.966Z,10.70
2018-08-19T15:23:20.890Z,9.80
2018-08-19T15:25:47.790Z,11.00
2018-08-19T15:28:15.205Z,9.53
2018-08-19T15:30:42.388Z,10.03
2018-08-19T15:33:10.650Z,8.93
2018-08-19T15:35:37.485Z,9.57
2018-08-19T15:38:04.433Z,9.87
2018-08-19T15:40:35.317Z,9.23
2018-08-19T15:43:02.245Z,9.50
2018-08-19T15:45:29.128Z,9.27
2018-08-19T15:47:56.024Z,8.53
2018-08-19T15:50:22.950Z,8.67
2018-08-19T15:52:50.353Z,9.57
2018-08-19T15:55:17.213Z,9.50
2018-08-19T15:57:44.126Z,9.53
2018-08-19T16:00:11.053Z,9.63
2018-08-19T16:02:37.949Z,9.80
2018-08-19T16:05:10.335Z,9.43
2018-08-19T16:07:37.242Z,9.50
2018-08-19T16:10:04.388Z,9.20
2018-08-19T16:12:31.344Z,8.40
2018-08-19T16:14:58.243Z,8.53
2018-08-19T16:17:25.136Z,8.87
2018-08-19T16:19:52.071Z,9.73
2018-08-19T16:22:19.015Z,8.17
2018-08-19T16:24:45.936Z,8.23
2018-08-19T16:27:12.833Z,9.47
2018-08-19T16:29:39.743Z,8.60
2018-08-19T16:32:06.666Z,8.87
2018-08-19T16:34:33.584Z,9.27
2018-08-19T16:37:00.455Z,8.30
2018-08-19T16:39:27.497Z,9.43
2018-08-19T16:41:54.265Z,8.80
2018-08-19T16:44:21.160Z,10.33
2018-08-19T16:46:48.049Z,9.37
2018-08-19T16:49:14.947Z,9.60
2018-08-19T16:51:41.844Z,10.50
2018-08-19T16:54:08.756Z,9.57
2018-08-19T16:56:35.670Z,10.33
2018-08-19T16:59:02.616Z,10.70
2018-08-19T17:01:29.511Z,11.13
2018-08-19T17:03:56.506Z,10.90
2018-08-19T17:06:23.447Z,11.00
2018-08-19T17:08:50.339Z,12.00
2018-08-19T17:11:17.258Z,11.03
2018-08-19T17:13:44.144Z,11.47
2018-08-19T17:16:11.316Z,10.83
2018-08-19T17:18:38.225Z,10.60
2018-08-19T17:21:05.468Z,12.20
2018-08-19T17:23:32.648Z,11.23
2018-08-19T17:26:03.949Z,12.37
2018-08-19T17:28:30.869Z,11.50
2018-08-19T17:30:57.788Z,11.27
2018-08-19T17:33:27.616Z,11.93
2018-08-19T17:35:54.552Z,12.20
2018-08-19T17:38:21.492Z,11.70
2018-08-19T17:40:48.565Z,12.80
2018-08-19T17:43:15.467Z,12.50
2018-08-19T17:45:45.661Z,11.27
2018-08-19T17:48:12.608Z,11.87
2018-08-19T17:50:39.584Z,11.70
2018-08-19T17:53:07.050Z,12.20
2018-08-19T17:55:34.108Z,11.60
2018-08-19T17:58:01.209Z,11.33
2018-08-19T18:00:28.312Z,11.57
2018-08-19T18:02:55.424Z,11.53
2018-08-19T18:05:22.711Z,11.07
2018-08-19T18:07:52.184Z,10.30
2018-08-19T18:10:19.350Z,11.30
2018-08-19T18:12:47.064Z,11.13
2018-08-19T18:15:14.009Z,10.57
2018-08-19T18:17:46.093Z,10.57
2018-08-19T18:20:25.205Z,9.87
2018-08-19T18:22:53.283Z,10.87
2018-08-19T18:25:20.237Z,9.90
2018-08-19T18:27:47.598Z,10.70
2018-08-19T18:30:18.279Z,10.10
2018-08-19T18:32:45.178Z,10.03
2018-08-19T18:35:12.104Z,9.73
2018-08-19T18:37:39.024Z,8.53
2018-08-19T18:40:05.946Z,9.17
2018-08-19T18:42:38.385Z,8.77
2018-08-19T18:45:12.320Z,9.43
2018-08-19T18:47:49.593Z,8.07
2018-08-19T18:50:17.035Z,9.47
2018-08-19T18:52:43.973Z,9.03
2018-08-19T18:55:10.899Z,9.50
2018-08-19T18:57:47.320Z,8.87
2018-08-19T19:00:14.284Z,8.70
2018-08-19T19:02:47.099Z,9.23
2018-08-19T19:05:26.168Z,8.83
2018-08-19T19:07:53.976Z,9.20
2018-08-19T19:10:20.860Z,9.10
2018-08-19T19:12:48.793Z,9.67
2018-08-19T19:15:15.723Z,9.10
2018-08-19T19:17:42.628Z,9.33
2018-08-19T19:20:09.631Z,9.37
2018-08-19T19:22:36.478Z,9.00
2018-08-19T19:25:03.414Z,9.10
2018-08-19T19:27:30.309Z,8.80
2018-08-19T19:30:03.165Z,8.30
2018-08-19T19:32:30.058Z,8.17
2018-08-19T19:34:59.300Z,8.80
2018-08-19T19:37:26.201Z,8.00
2018-08-19T19:39:58.804Z,7.37
2018-08-19T19:42:25.697Z,8.83
2018-08-19T19:44:52.638Z,8.70
2018-08-19T19:47:19.520Z,9.17
2018-08-19T19:49:53.928Z,9.27
2018-08-19T19:52:21.228Z,9.13
2018-08-19T19:54:48.368Z,9.63
2018-08-19T19:57:15.284Z,9.17
2018-08-19T19:59:42.184Z,8.90
2018-08-19T20:02:14.944Z,9.90
2018-08-19T20:04:41.824Z,9.57
2018-08-19T20:07:08.719Z,9.37
2018-08-19T20:09:35.744Z,9.37
2018-08-19T20:12:02.672Z,10.23
2018-08-19T20:14:29.564Z,9.70
2018-08-19T20:16:56.448Z,9.97
2018-08-19T20:19:23.354Z,9.77
2018-08-19T20:21:50.278Z,9.63
2018-08-19T20:24:17.178Z,10.27
2018-08-19T20:26:44.094Z,9.27
2018-08-19T20:29:10.992Z,8.77
2018-08-19T20:31:37.928Z,9.13
2018-08-19T20:34:04.884Z,9.07
2018-08-19T20:36:31.754Z,8.33
2018-08-19T20:38:58.699Z,8.00
2018-08-19T20:41:25.607Z,8.37
2018-08-19T20:43:52.508Z,7.73
2018-08-19T20:46:19.417Z,8.17
2018-08-19T20:48:47.216Z,8.40
2018-08-19T20:51:14.116Z,7.73
2018-08-19T20:53:41.008Z,7.43
2018-08-19T20:56:07.975Z,7.33
2018-08-19T20:58:34.984Z,7.60
2018-08-19T21:01:01.905Z,7.10
2018-08-19T21:03:28.820Z,6.67
2018-08-19T21:05:55.727Z,6.70
2018-08-19T21:08:22.640Z,6.23
2018-08-19T21:10:49.720Z,6.53
2018-08-19T21:13:17.904Z,6.20
2018-08-19T21:15:52.879Z,6.17
2018-08-19T21:18:19.776Z,5.80
2018-08-19T21:20:46.681Z,6.30
2018-08-19T21:23:13.612Z,5.53
2018-08-19T21:25:48.446Z,6.47
2018-08-19T21:28:15.926Z,5.83
2018-08-19T21:30:42.884Z,5.00
2018-08-19T21:33:09.789Z,5.53
2018-08-19T21:35:42.357Z,5.40
2018-08-19T21:38:09.274Z,5.73
2018-08-19T21:40:36.892Z,6.23
2018-08-19T21:43:03.825Z,5.83
2018-08-19T21:45:30.786Z,5.70
2018-08-19T21:47:57.684Z,6.33
2018-08-19T21:50:24.592Z,6.23
2018-08-19T21:53:02.547Z,6.60
2018-08-19T21:55:34.720Z,6.47
2018-08-19T21:58:02.208Z,5.87
2018-08-19T22:00:30.591Z,6.13
2018-08-19T22:03:03.661Z,6.93
2018-08-19T22:05:32.016Z,6.00
2018-08-19T22:07:58.984Z,6.63
2018-08-19T22:10:25.899Z,6.63
2018-08-19T22:12:52.857Z,5.73
2018-08-19T22:15:22.916Z,5.73
2018-08-19T22:17:49.856Z,6.00
2018-08-19T22:20:16.801Z,7.07
2018-08-19T22:22:43.705Z,6.63
2018-08-19T22:25:10.659Z,7.00
2018-08-19T22:27:37.561Z,6.17
2018-08-19T22:30:04.852Z,6.40
2018-08-19T22:32:32.848Z,6.90
2018-08-19T22:34:59.883Z,7.40
2018-08-19T22:37:26.961Z,7.37
2018-08-19T22:39:53.964Z,8.17
2018-08-19T22:42:20.825Z,8.13
2018-08-19T22:44:47.733Z,8.23
2018-08-19T22:47:14.616Z,8.43
2018-08-19T22:49:41.531Z,7.80
2018-08-19T22:52:18.831Z,7.63
2018-08-19T22:54:45.808Z,8.67
2018-08-19T22:57:12.712Z,8.23
2018-08-19T22:59:39.631Z,7.80
2018-08-19T23:02:06.529Z,9.23
2018-08-19T23:04:33.521Z,8.73
2018-08-19T23:07:00.571Z,9.30
2018-08-19T23:09:27.481Z,9.77
2018-08-19T23:11:54.356Z,8.90
2018-08-19T23:14:32.932Z,9.47
2018-08-19T23:16:59.853Z,9.20
2018-08-19T23:19:26.769Z,9.13
2018-08-19T23:21:53.692Z,9.30
2018-08-19T23:24:20.604Z,8.90
2018-08-19T23:26:47.501Z,9.33
2018-08-19T23:29:14.394Z,8.40
2018-08-19T23:31:41.316Z,8.50
2018-08-19T23:34:08.231Z,9.20
2018-08-19T23:36:35.149Z,9.17
2018-08-19T23:39:02.128Z,8.90
2018-08-19T23:41:29.046Z,9.20
2018-08-19T23:43:55.988Z,9.23
2018-08-19T23:46:22.903Z,12.07
2018-08-19T23:48:49.802Z,10.97
2018-08-19T23:51:21.313Z,12.40
2018-08-19T23:53:48.204Z,11.83
2018-08-19T23:56:15.125Z,11.97
2018-08-19T23:58:44.359Z,12.37
